createdAt,value
2022-11-29T00:00:42.983Z,68.7143
2022-11-29T00:01:43.105Z,68.7143
2022-11-29T00:02:43.143Z,68.7143
2022-11-29T00:03:43.094Z,68.7143
2022-11-29T00:04:43.438Z,68.6429
2022-11-29T00:05:43.165Z,68.6429
2022-11-29T00:06:43.190Z,68.5714
2022-11-29T00:07:43.274Z,68.5714
2022-11-29T00:08:43.274Z,68.5714
2022-11-29T00:09:43.304Z,68.6429
2022-11-29T00:10:43.350Z,68.5714
2022-11-29T00:11:43.381Z,68.5714
2022-11-29T00:12:43.432Z,68.5
2022-11-29T00:13:43.473Z,68.4286
2022-11-29T00:14:43.979Z,68.4286
2022-11-29T00:15:43.533Z,68.3571
2022-11-29T00:16:43.622Z,68.3571
2022-11-29T00:17:43.600Z,68.3571
2022-11-29T00:18:43.633Z,68.4286
2022-11-29T00:19:43.672Z,68.4286
2022-11-29T00:20:43.710Z,68.3571
2022-11-29T00:21:43.748Z,68.3571
2022-11-29T00:22:43.776Z,68.3571
2022-11-29T00:23:43.812Z,68.2857
2022-11-29T00:24:44.205Z,68.3571
2022-11-29T00:25:43.891Z,68.3571
2022-11-29T00:26:43.926Z,68.4286
2022-11-29T00:27:43.956Z,68.5
2022-11-29T00:28:43.996Z,68.4286
2022-11-29T00:29:44.021Z,68.4286
2022-11-29T00:30:44.101Z,68.4286
2022-11-29T00:31:44.096Z,68.4286
2022-11-29T00:32:44.122Z,68.4286
2022-11-29T00:33:44.162Z,68.4286
2022-11-29T00:34:44.450Z,68.4286
2022-11-29T00:35:44.239Z,68.4286
2022-11-29T00:36:44.274Z,68.4286
2022-11-29T00:37:44.309Z,68.4286
2022-11-29T00:38:44.355Z,68.4286
2022-11-29T00:39:44.364Z,68.5
2022-11-29T00:40:44.401Z,68.4286
2022-11-29T00:41:44.449Z,68.4286
2022-11-29T00:42:44.499Z,68.5
2022-11-29T00:43:44.513Z,68.5714
2022-11-29T00:44:44.863Z,68.5714
2022-11-29T00:45:44.658Z,68.6429
2022-11-29T00:46:44.614Z,68.6429
2022-11-29T00:47:44.654Z,68.6429
2022-11-29T00:48:44.693Z,68.6429
2022-11-29T00:49:44.726Z,68.7143
2022-11-29T00:50:44.761Z,68.6429
2022-11-29T00:51:44.802Z,68.6429
2022-11-29T00:52:44.837Z,68.6429
2022-11-29T00:53:44.866Z,68.6429
2022-11-29T00:54:45.248Z,68.6429
2022-11-29T00:55:44.929Z,68.6429
2022-11-29T00:56:44.958Z,68.7143
2022-11-29T00:57:45.016Z,68.6429
2022-11-29T00:58:45.041Z,68.6429
2022-11-29T00:59:45.070Z,68.5714
2022-11-29T01:00:45.089Z,68.5714
2022-11-29T01:01:45.180Z,68.6429
2022-11-29T01:02:45.202Z,68.5714
2022-11-29T01:03:45.196Z,68.5714
2022-11-29T01:04:45.409Z,68.4286
2022-11-29T01:05:45.264Z,68.4286
2022-11-29T01:06:45.296Z,68.3571
2022-11-29T01:07:45.373Z,68.4286
2022-11-29T01:08:45.372Z,68.5
2022-11-29T01:09:45.411Z,68.4286
2022-11-29T01:10:45.452Z,68.3571
2022-11-29T01:11:45.473Z,68.3571
2022-11-29T01:12:45.520Z,68.3571
2022-11-29T01:13:45.559Z,68.3571
2022-11-29T01:14:45.776Z,68.3571
2022-11-29T01:15:45.630Z,68.4286
2022-11-29T01:16:45.722Z,68.4286
2022-11-29T01:17:45.697Z,68.3571
2022-11-29T01:18:45.736Z,68.3571
2022-11-29T01:19:50.490Z,68.4286
2022-11-29T01:20:45.801Z,68.3571
2022-11-29T01:21:45.845Z,68.2857
2022-11-29T01:22:45.886Z,68.3571
2022-11-29T01:23:45.918Z,68.2857
2022-11-29T01:24:46.233Z,68.2857
2022-11-29T01:25:45.984Z,68.2857
2022-11-29T01:26:46.015Z,68.2143
2022-11-29T01:27:46.046Z,68.2143
2022-11-29T01:28:46.080Z,68.2857
2022-11-29T01:29:46.110Z,68.3571
2022-11-29T01:30:46.184Z,68.3571
2022-11-29T01:31:46.184Z,68.2857
2022-11-29T01:32:46.214Z,68.2857
2022-11-29T01:33:46.247Z,68.3571
2022-11-29T01:34:46.557Z,68.3571
2022-11-29T01:35:46.312Z,68.2857
2022-11-29T01:36:46.343Z,68.2857
2022-11-29T01:37:46.377Z,68.2857
2022-11-29T01:38:46.408Z,68.2857
2022-11-29T01:39:46.444Z,68.2857
2022-11-29T01:40:46.475Z,68.2857
2022-11-29T01:41:46.505Z,68.2143
2022-11-29T01:42:46.535Z,68.2143
2022-11-29T01:43:46.574Z,68.2143
2022-11-29T01:44:46.891Z,68.2143
2022-11-29T01:45:46.672Z,68.1429
2022-11-29T01:46:46.676Z,68.1429
2022-11-29T01:47:46.709Z,68.0714
2022-11-29T01:48:46.749Z,68.0714
2022-11-29T01:49:46.796Z,68
2022-11-29T01:50:46.813Z,68
2022-11-29T01:51:46.858Z,67.9286
2022-11-29T01:52:46.887Z,68
2022-11-29T01:53:46.916Z,68
2022-11-29T01:54:47.256Z,68.0714
2022-11-29T01:55:47.047Z,68.0714
2022-11-29T01:56:47.039Z,68.0714
2022-11-29T01:57:47.072Z,68.0714
2022-11-29T01:58:47.117Z,68
2022-11-29T01:59:47.153Z,68
2022-11-29T02:00:47.194Z,68.0714
2022-11-29T02:01:47.291Z,68.1429
2022-11-29T02:02:47.373Z,68.0714
2022-11-29T02:03:47.310Z,68.1429
2022-11-29T02:04:47.661Z,68.1429
2022-11-29T02:05:47.377Z,68.1429
2022-11-29T02:06:47.422Z,68.0714
2022-11-29T02:07:47.476Z,68.0714
2022-11-29T02:08:47.499Z,67.9286
2022-11-29T02:09:47.531Z,67.9286
2022-11-29T02:10:47.578Z,68
2022-11-29T02:11:47.619Z,67.9286
2022-11-29T02:12:47.655Z,67.8571
2022-11-29T02:13:47.686Z,67.8571
2022-11-29T02:14:47.911Z,67.8571
2022-11-29T02:15:47.792Z,67.8571
2022-11-29T02:16:47.787Z,67.9286
2022-11-29T02:17:47.825Z,68
2022-11-29T02:18:47.855Z,68
2022-11-29T02:19:47.900Z,68
2022-11-29T02:20:47.927Z,68
2022-11-29T02:21:47.957Z,68.0714
2022-11-29T02:22:47.990Z,68.0714
2022-11-29T02:23:48.037Z,68
2022-11-29T02:24:48.064Z,68
2022-11-29T02:25:48.102Z,67.9286
2022-11-29T02:26:48.139Z,67.8571
2022-11-29T02:27:48.180Z,67.8571
2022-11-29T02:28:48.214Z,67.9286
2022-11-29T02:29:48.242Z,67.8571
2022-11-29T02:30:48.328Z,67.8571
2022-11-29T02:31:48.310Z,67.7857
2022-11-29T02:32:48.351Z,67.7143
2022-11-29T02:33:48.377Z,67.7857
2022-11-29T02:34:48.415Z,67.7857
2022-11-29T02:35:48.443Z,67.7857
2022-11-29T02:36:48.477Z,67.7857
2022-11-29T02:37:48.509Z,67.7857
2022-11-29T02:38:48.543Z,67.7857
2022-11-29T02:39:48.583Z,67.7857
2022-11-29T02:40:48.607Z,67.7857
2022-11-29T02:41:48.656Z,67.8571
2022-11-29T02:42:54.137Z,67.9286
2022-11-29T02:43:48.728Z,68
2022-11-29T02:44:48.764Z,68
2022-11-29T02:45:48.821Z,68
2022-11-29T02:46:48.827Z,68
2022-11-29T02:47:48.864Z,68
2022-11-29T02:48:48.896Z,68.0714
2022-11-29T02:49:48.923Z,68.1429
2022-11-29T02:50:48.964Z,68.1429
2022-11-29T02:51:48.991Z,68.1429
2022-11-29T02:52:49.034Z,68.1429
2022-11-29T02:53:49.069Z,68.1429
2022-11-29T02:54:49.092Z,68.1429
2022-11-29T02:55:49.130Z,68.0714
2022-11-29T02:56:49.170Z,68.0714
2022-11-29T02:57:49.213Z,68.0714
2022-11-29T02:58:49.236Z,68.0714
2022-11-29T02:59:49.271Z,68.0714
2022-11-29T03:00:49.297Z,68.0714
2022-11-29T03:01:49.364Z,68
2022-11-29T03:02:49.427Z,68
2022-11-29T03:03:49.403Z,68
2022-11-29T03:04:49.435Z,68
2022-11-29T03:05:49.477Z,67.9286
2022-11-29T03:06:49.511Z,67.9286
2022-11-29T03:07:49.585Z,67.9286
2022-11-29T03:08:49.584Z,68
2022-11-29T03:09:49.619Z,68.1429
2022-11-29T03:10:49.656Z,68.1429
2022-11-29T03:11:49.674Z,68.2143
2022-11-29T03:12:49.711Z,68.2143
2022-11-29T03:13:49.750Z,68.1429
2022-11-29T03:14:49.788Z,68.1429
2022-11-29T03:15:49.896Z,68.0714
2022-11-29T03:16:49.856Z,68.1429
2022-11-29T03:17:49.886Z,68.0714
2022-11-29T03:18:49.924Z,68.1429
2022-11-29T03:19:49.953Z,68.0714
2022-11-29T03:20:49.997Z,68.1429
2022-11-29T03:21:50.054Z,68.1429
2022-11-29T03:22:50.062Z,68.2143
2022-11-29T03:23:50.094Z,68.2143
2022-11-29T03:24:50.132Z,68.2143
2022-11-29T03:25:50.159Z,68.2857
2022-11-29T03:26:50.202Z,68.2857
2022-11-29T03:27:50.222Z,68.2857
2022-11-29T03:28:50.255Z,68.2857
2022-11-29T03:29:50.296Z,68.3571
2022-11-29T03:30:50.384Z,68.4286
2022-11-29T03:31:50.360Z,68.3571
2022-11-29T03:32:50.397Z,68.3571
2022-11-29T03:33:50.432Z,68.3571
2022-11-29T03:34:54.288Z,68.2857
2022-11-29T03:35:50.490Z,68.2857
2022-11-29T03:36:50.520Z,68.2857
2022-11-29T03:37:50.549Z,68.2857
2022-11-29T03:38:50.589Z,68.2857
2022-11-29T03:39:50.624Z,68.4286
2022-11-29T03:40:50.660Z,68.4286
2022-11-29T03:41:50.694Z,68.4286
2022-11-29T03:42:50.732Z,68.4286
2022-11-29T03:43:50.769Z,68.5
2022-11-29T03:44:50.804Z,68.5714
2022-11-29T03:45:50.843Z,68.6429
2022-11-29T03:46:50.862Z,68.6429
2022-11-29T03:47:50.891Z,68.5714
2022-11-29T03:48:50.923Z,68.6429
2022-11-29T03:49:50.957Z,68.5714
2022-11-29T03:50:50.996Z,68.5
2022-11-29T03:51:51.029Z,68.5
2022-11-29T03:52:51.059Z,68.5
2022-11-29T03:53:51.097Z,68.5714
2022-11-29T03:54:51.120Z,68.5714
2022-11-29T03:55:51.166Z,68.4286
2022-11-29T03:56:51.206Z,68.5
2022-11-29T03:57:51.224Z,68.5
2022-11-29T03:58:51.268Z,68.5714
2022-11-29T03:59:51.307Z,68.5714
2022-11-29T04:00:51.334Z,68.7143
2022-11-29T04:01:51.462Z,68.7143
2022-11-29T04:02:51.481Z,68.7143
2022-11-29T04:03:51.455Z,68.7143
2022-11-29T04:04:51.488Z,68.7857
2022-11-29T04:05:51.532Z,68.7143
2022-11-29T04:06:51.572Z,68.6429
2022-11-29T04:07:51.669Z,68.7857
2022-11-29T04:08:51.642Z,68.7857
2022-11-29T04:09:51.692Z,68.7857
2022-11-29T04:10:51.717Z,68.7143
2022-11-29T04:11:51.758Z,68.7143
2022-11-29T04:12:51.787Z,68.7857
2022-11-29T04:13:51.837Z,68.8571
2022-11-29T04:14:51.870Z,68.9286
2022-11-29T04:15:51.949Z,68.9286
2022-11-29T04:16:51.940Z,68.7857
2022-11-29T04:17:51.980Z,68.7143
2022-11-29T04:18:52.016Z,68.7143
2022-11-29T04:19:52.051Z,68.7857
2022-11-29T04:20:52.077Z,68.7857
2022-11-29T04:21:52.095Z,68.7857
2022-11-29T04:22:52.153Z,68.8571
2022-11-29T04:23:52.178Z,68.9286
2022-11-29T04:24:52.213Z,69
2022-11-29T04:25:52.252Z,69
2022-11-29T04:26:52.272Z,68.9286
2022-11-29T04:27:52.319Z,68.9286
2022-11-29T04:28:52.346Z,69
2022-11-29T04:29:52.381Z,69
2022-11-29T04:30:52.472Z,69
2022-11-29T04:31:52.473Z,69.0714
2022-11-29T04:32:52.503Z,69.0714
2022-11-29T04:33:52.539Z,69.0714
2022-11-29T04:34:52.576Z,69.0714
2022-11-29T04:35:52.613Z,69.0714
2022-11-29T04:36:52.659Z,69.0714
2022-11-29T04:37:52.696Z,69.0714
2022-11-29T04:38:52.725Z,69.1429
2022-11-29T04:39:52.763Z,69.2143
2022-11-29T04:40:52.793Z,69.1429
2022-11-29T04:41:52.824Z,69.0714
2022-11-29T04:42:52.855Z,69.1429
2022-11-29T04:43:52.886Z,69.0714
2022-11-29T04:44:52.934Z,69.0714
2022-11-29T04:45:52.977Z,69
2022-11-29T04:46:52.998Z,69.1429
2022-11-29T04:47:53.034Z,69.0714
2022-11-29T04:48:53.067Z,69
2022-11-29T04:49:53.101Z,69.0714
2022-11-29T04:50:53.143Z,69.2143
2022-11-29T04:51:53.182Z,69.2857
2022-11-29T04:52:53.222Z,69.2143
2022-11-29T04:53:53.254Z,69.2143
2022-11-29T04:54:53.288Z,69.2143
2022-11-29T04:55:53.328Z,69.2143
2022-11-29T04:56:53.363Z,69.2143
2022-11-29T04:57:53.397Z,69.1429
2022-11-29T04:58:53.432Z,69.2143
2022-11-29T04:59:53.464Z,69.2857
2022-11-29T05:00:53.488Z,69.3571
2022-11-29T05:01:53.624Z,69.2857
2022-11-29T05:02:53.615Z,69.3571
2022-11-29T05:03:57.097Z,69.3571
2022-11-29T05:04:53.631Z,69.3571
2022-11-29T05:05:53.660Z,69.3571
2022-11-29T05:06:53.688Z,69.2857
2022-11-29T05:07:53.775Z,69.2857
2022-11-29T05:08:53.776Z,69.3571
2022-11-29T05:09:53.804Z,69.4286
2022-11-29T05:10:53.850Z,69.4286
2022-11-29T05:11:53.876Z,69.4286
2022-11-29T05:12:53.912Z,69.4286
2022-11-29T05:13:53.949Z,69.4286
2022-11-29T05:14:53.988Z,69.4286
2022-11-29T05:15:54.087Z,69.4286
2022-11-29T05:16:54.037Z,69.5
2022-11-29T05:17:54.075Z,69.5
2022-11-29T05:18:54.123Z,69.4286
2022-11-29T05:19:54.152Z,69.4286
2022-11-29T05:20:54.202Z,69.3571
2022-11-29T05:21:54.229Z,69.2857
2022-11-29T05:22:54.261Z,69.2857
2022-11-29T05:23:54.297Z,69.2143
2022-11-29T05:24:54.333Z,69.1429
2022-11-29T05:25:54.363Z,69.2143
2022-11-29T05:26:54.402Z,69.2143
2022-11-29T05:27:54.435Z,69.1429
2022-11-29T05:28:54.481Z,69.2143
2022-11-29T05:29:54.506Z,69.2857
2022-11-29T05:30:54.617Z,69.1429
2022-11-29T05:31:54.576Z,69.1429
2022-11-29T05:32:54.609Z,69.0714
2022-11-29T05:33:54.658Z,69.1429
2022-11-29T05:34:54.690Z,69.1429
2022-11-29T05:35:54.732Z,69.0714
2022-11-29T05:36:54.762Z,69
2022-11-29T05:37:54.790Z,69
2022-11-29T05:38:54.831Z,69.0714
2022-11-29T05:39:54.867Z,69.1429
2022-11-29T05:40:54.889Z,69.1429
2022-11-29T05:41:54.921Z,69.1429
2022-11-29T05:42:54.966Z,69.2143
2022-11-29T05:43:54.999Z,69.1429
2022-11-29T05:44:55.041Z,69.2143
2022-11-29T05:45:55.073Z,69.1429
2022-11-29T05:46:55.104Z,69.2143
2022-11-29T05:47:55.130Z,69.1429
2022-11-29T05:48:55.169Z,69.1429
2022-11-29T05:49:55.195Z,69.2143
2022-11-29T05:50:55.232Z,69.1429
2022-11-29T05:51:55.270Z,69.2143
2022-11-29T05:52:55.291Z,69.2857
2022-11-29T05:53:55.343Z,69.3571
2022-11-29T05:54:55.366Z,69.2857
2022-11-29T05:55:55.408Z,69.3571
2022-11-29T05:56:55.456Z,69.3571
2022-11-29T05:57:55.485Z,69.3571
2022-11-29T05:58:55.524Z,69.3571
2022-11-29T05:59:55.563Z,69.3571
2022-11-29T06:00:55.606Z,69.3571
2022-11-29T06:01:55.699Z,69.2143
2022-11-29T06:02:55.691Z,69.1429
2022-11-29T06:03:55.701Z,69.1429
2022-11-29T06:04:55.737Z,69.0714
2022-11-29T06:05:55.787Z,69.0714
2022-11-29T06:06:55.812Z,69.0714
2022-11-29T06:07:55.918Z,69.0714
2022-11-29T06:08:55.888Z,69.1429
2022-11-29T06:10:00.497Z,69.1429
2022-11-29T06:10:55.966Z,69.1429
2022-11-29T06:11:55.997Z,69.2143
2022-11-29T06:12:56.036Z,69.2857
2022-11-29T06:13:56.072Z,69.2857
2022-11-29T06:14:56.104Z,69.2857
2022-11-29T06:15:56.171Z,69.2857
2022-11-29T06:16:56.174Z,69.2143
2022-11-29T06:17:56.209Z,69.2143
2022-11-29T06:18:56.230Z,69.2143
2022-11-29T06:19:56.274Z,69.2857
2022-11-29T06:20:56.304Z,69.2857
2022-11-29T06:21:56.344Z,69.3571
2022-11-29T06:22:56.374Z,69.3571
2022-11-29T06:23:56.402Z,69.3571
2022-11-29T06:24:56.442Z,69.3571
2022-11-29T06:26:02.205Z,69.2857
2022-11-29T06:26:56.521Z,69.2143
2022-11-29T06:27:56.555Z,69.1429
2022-11-29T06:28:56.600Z,69
2022-11-29T06:29:56.639Z,69
2022-11-29T06:30:56.785Z,69.0714
2022-11-29T06:31:56.701Z,69.0714
2022-11-29T06:32:56.742Z,69
2022-11-29T06:33:56.771Z,69
2022-11-29T06:34:56.802Z,69.0714
2022-11-29T06:35:56.837Z,69.1429
2022-11-29T06:36:56.876Z,69.1429
2022-11-29T06:37:35.706Z,69.0714
2022-11-29T06:38:35.761Z,69.0714
2022-11-29T06:39:35.777Z,69.0714
2022-11-29T06:40:35.832Z,69
2022-11-29T06:41:35.862Z,69
2022-11-29T06:42:35.887Z,69
2022-11-29T06:43:35.950Z,69
2022-11-29T06:44:35.966Z,69.0714
2022-11-29T06:45:36.008Z,69.1429
2022-11-29T06:46:36.200Z,69.1429
2022-11-29T06:47:36.100Z,69.1429
2022-11-29T06:48:36.132Z,69.1429
2022-11-29T06:49:36.154Z,69.0714
2022-11-29T06:50:36.187Z,69.0714
2022-11-29T06:51:36.229Z,69.0714
2022-11-29T06:52:36.255Z,69.0714
2022-11-29T06:53:36.316Z,68.9286
2022-11-29T06:54:36.328Z,68.9286
2022-11-29T06:55:36.388Z,68.9286
2022-11-29T06:56:36.413Z,69
2022-11-29T06:57:36.439Z,69
2022-11-29T06:58:36.600Z,68.9286
2022-11-29T06:59:36.502Z,68.9286
2022-11-29T07:00:36.593Z,68.9286
2022-11-29T07:01:36.627Z,68.9286
2022-11-29T07:02:36.590Z,68.9286
2022-11-29T07:03:36.649Z,69
2022-11-29T07:04:40.005Z,69
2022-11-29T07:05:36.699Z,68.9286
2022-11-29T07:06:36.751Z,68.8571
2022-11-29T07:07:36.878Z,68.8571
2022-11-29T07:08:36.819Z,68.7857
2022-11-29T07:10:11.972Z,68.7143
2022-11-29T07:11:07.149Z,68.6429
2022-11-29T07:12:07.180Z,68.7857
2022-11-29T07:13:07.218Z,68.6429
2022-11-29T07:14:07.275Z,68.5714
2022-11-29T07:15:07.317Z,68.5714
2022-11-29T07:15:20.953Z,68.5
2022-11-29T07:16:21.022Z,68.4286
2022-11-29T07:17:21.022Z,68.5
2022-11-29T07:18:21.069Z,68.5
2022-11-29T07:19:21.102Z,68.5714
2022-11-29T07:20:21.128Z,68.4286
2022-11-29T07:21:21.152Z,68.4286
2022-11-29T07:22:21.195Z,68.4286
2022-11-29T07:23:21.216Z,68.4286
2022-11-29T07:24:21.253Z,68.4286
2022-11-29T07:25:21.279Z,68.5
2022-11-29T07:26:21.313Z,68.6429
2022-11-29T07:27:21.344Z,68.6429
2022-11-29T07:28:21.368Z,68.6429
2022-11-29T07:29:21.385Z,68.6429
2022-11-29T07:30:21.428Z,68.5714
2022-11-29T07:31:21.523Z,68.5
2022-11-29T07:32:21.486Z,68.3571
2022-11-29T07:33:21.520Z,68.2143
2022-11-29T07:34:21.560Z,68.2857
2022-11-29T07:35:21.594Z,68.2143
2022-11-29T07:36:21.629Z,68.1429
2022-11-29T07:37:21.655Z,68.0714
2022-11-29T07:38:21.700Z,68.2857
2022-11-29T07:39:21.724Z,68.1429
2022-11-29T07:40:21.749Z,68.2143
2022-11-29T07:41:21.771Z,68.2143
2022-11-29T07:42:21.808Z,68.1429
2022-11-29T07:43:21.841Z,68
2022-11-29T07:44:21.866Z,68
2022-11-29T07:45:21.901Z,68.1429
2022-11-29T07:46:21.984Z,68.1429
2022-11-29T07:47:21.968Z,68.2143
2022-11-29T07:48:21.995Z,68.1429
2022-11-29T07:49:22.013Z,68
2022-11-29T07:50:22.051Z,67.9286
2022-11-29T07:51:22.076Z,68.0714
2022-11-29T07:52:22.098Z,67.9286
2022-11-29T07:53:22.128Z,67.9286
2022-11-29T07:54:22.259Z,68
2022-11-29T07:55:22.193Z,67.9286
2022-11-29T07:56:22.217Z,67.9286
2022-11-29T07:57:22.249Z,68.1429
2022-11-29T07:58:22.305Z,68.0714
2022-11-29T07:59:22.301Z,68.2143
2022-11-29T08:00:22.329Z,68.1429
2022-11-29T08:01:22.442Z,67.9286
2022-11-29T08:02:22.474Z,67.8571
2022-11-29T08:03:22.411Z,67.7857
2022-11-29T08:04:22.445Z,67.7857
2022-11-29T08:05:22.471Z,67.9286
2022-11-29T08:06:22.502Z,67.9286
2022-11-29T08:07:22.591Z,67.9286
2022-11-29T08:08:22.553Z,67.7857
2022-11-29T08:09:22.592Z,67.6429
2022-11-29T08:10:22.624Z,67.6429
2022-11-29T08:11:22.650Z,67.7143
2022-11-29T08:12:22.675Z,67.8571
2022-11-29T08:13:22.706Z,67.9286
2022-11-29T08:14:22.735Z,67.7857
2022-11-29T08:15:22.754Z,67.7857
2022-11-29T08:16:22.866Z,67.7143
2022-11-29T08:17:22.813Z,67.8571
2022-11-29T08:18:22.851Z,67.9286
2022-11-29T08:19:22.885Z,68
2022-11-29T08:20:22.912Z,67.8571
2022-11-29T08:21:22.944Z,67.7857
2022-11-29T08:22:22.978Z,67.7143
2022-11-29T08:23:22.998Z,67.5714
2022-11-29T08:24:23.038Z,67.7143
2022-11-29T08:25:23.058Z,67.7857
2022-11-29T08:26:26.922Z,67.7857
2022-11-29T08:27:23.126Z,67.8571
2022-11-29T08:28:23.162Z,67.7143
2022-11-29T08:29:23.199Z,67.5714
2022-11-29T08:30:23.343Z,67.5
2022-11-29T08:31:23.290Z,67.5714
2022-11-29T08:32:23.296Z,67.6429
2022-11-29T08:33:23.321Z,67.3571
2022-11-29T08:34:23.362Z,67.2857
2022-11-29T08:35:23.398Z,67.2857
2022-11-29T08:36:23.419Z,67.1429
2022-11-29T08:37:23.444Z,67
2022-11-29T08:38:23.481Z,67.0714
2022-11-29T08:39:23.499Z,67
2022-11-29T08:40:23.596Z,66.9286
2022-11-29T08:41:23.557Z,66.8571
2022-11-29T08:42:23.596Z,66.9286
2022-11-29T08:43:23.624Z,66.8571
2022-11-29T08:44:23.651Z,66.9286
2022-11-29T08:45:23.750Z,66.9286
2022-11-29T08:46:23.769Z,66.9286
2022-11-29T08:47:23.744Z,66.7857
2022-11-29T08:48:23.771Z,66.6429
2022-11-29T08:49:23.799Z,66.6429
2022-11-29T08:50:23.876Z,66.5714
2022-11-29T08:51:23.846Z,66.4286
2022-11-29T08:52:23.881Z,66.5
2022-11-29T08:53:23.914Z,66.7143
2022-11-29T08:54:23.930Z,66.7143
2022-11-29T08:55:23.973Z,66.7857
2022-11-29T08:57:10.231Z,66.7857
2022-11-29T08:57:40.438Z,66.7857
2022-11-29T08:58:24.062Z,66.7143
2022-11-29T08:59:24.084Z,66.5714
2022-11-29T09:00:24.235Z,66.7143
2022-11-29T09:01:24.210Z,66.7143
2022-11-29T09:02:24.212Z,66.6429
2022-11-29T09:03:24.205Z,66.6429
2022-11-29T09:04:24.242Z,66.6429
2022-11-29T09:05:24.282Z,66.7143
2022-11-29T09:06:24.323Z,66.8571
2022-11-29T09:07:24.427Z,67
2022-11-29T09:08:24.358Z,67.1429
2022-11-29T09:09:24.381Z,67.2143
2022-11-29T09:10:24.418Z,67.1429
2022-11-29T09:11:24.460Z,67
2022-11-29T09:12:24.489Z,67.1429
2022-11-29T09:13:24.517Z,67.0714
2022-11-29T09:14:24.553Z,67.1429
2022-11-29T09:15:24.589Z,67.0714
2022-11-29T09:16:24.642Z,67
2022-11-29T09:17:24.650Z,66.8571
2022-11-29T09:18:24.685Z,67
2022-11-29T09:19:24.715Z,67.0714
2022-11-29T09:20:24.743Z,67
2022-11-29T09:21:24.771Z,67
2022-11-29T09:22:24.799Z,66.7857
2022-11-29T09:23:24.826Z,66.5714
2022-11-29T09:24:24.864Z,66.6429
2022-11-29T09:25:24.887Z,66.7143
2022-11-29T09:26:24.919Z,66.8571
2022-11-29T09:27:24.962Z,67
2022-11-29T09:28:24.979Z,67
2022-11-29T09:29:25.005Z,66.7857
2022-11-29T09:30:25.100Z,66.8571
2022-11-29T09:31:25.146Z,66.8571
2022-11-29T09:32:25.106Z,66.7857
2022-11-29T09:33:25.132Z,66.7857
2022-11-29T09:34:25.168Z,66.8571
2022-11-29T09:35:25.192Z,67
2022-11-29T09:36:28.963Z,67
2022-11-29T09:37:25.268Z,66.8571
2022-11-29T09:38:25.270Z,66.8571
2022-11-29T09:39:25.295Z,66.8571
2022-11-29T09:40:25.327Z,66.6429
2022-11-29T09:41:25.353Z,66.7143
2022-11-29T09:42:25.387Z,66.8571
2022-11-29T09:43:25.410Z,66.9286
2022-11-29T09:44:25.435Z,67.0714
2022-11-29T09:45:25.464Z,67
2022-11-29T09:46:25.500Z,66.9286
2022-11-29T09:47:25.535Z,66.9286
2022-11-29T09:48:25.560Z,66.8571
2022-11-29T09:49:25.601Z,66.7143
2022-11-29T09:50:25.638Z,66.7857
2022-11-29T09:51:25.654Z,67
2022-11-29T09:52:25.694Z,67.0714
2022-11-29T09:53:25.722Z,67.0714
2022-11-29T09:54:25.743Z,66.8571
2022-11-29T09:55:25.777Z,66.5714
2022-11-29T09:56:25.810Z,66.5
2022-11-29T09:57:25.836Z,66.4286
2022-11-29T09:58:25.862Z,66.3571
2022-11-29T09:59:25.909Z,66.5
2022-11-29T10:00:25.936Z,66.6429
2022-11-29T10:01:26.015Z,66.5
2022-11-29T10:02:26.035Z,66.4286
2022-11-29T10:03:26.027Z,66.5
2022-11-29T10:04:26.059Z,66.5714
2022-11-29T10:05:26.088Z,66.5714
2022-11-29T10:06:26.124Z,66.6429
2022-11-29T10:07:26.169Z,66.5
2022-11-29T10:08:26.179Z,66.5
2022-11-29T10:09:30.869Z,66.6429
2022-11-29T10:10:26.251Z,66.6429
2022-11-29T10:11:26.284Z,66.6429
2022-11-29T10:12:26.320Z,66.5714
2022-11-29T10:13:26.357Z,66.6429
2022-11-29T10:14:26.387Z,66.6429
2022-11-29T10:15:26.423Z,66.7143
2022-11-29T10:16:26.510Z,66.7857
2022-11-29T10:17:26.482Z,66.7143
2022-11-29T10:18:26.526Z,66.7143
2022-11-29T10:19:26.548Z,66.5714
2022-11-29T10:20:26.577Z,66.5
2022-11-29T10:21:26.617Z,66.2857
2022-11-29T10:22:26.652Z,66.0714
2022-11-29T10:23:26.684Z,66.0714
2022-11-29T10:24:26.738Z,66.0714
2022-11-29T10:25:26.748Z,66.0714
2022-11-29T10:26:32.005Z,66.2143
2022-11-29T10:27:26.812Z,66.0714
2022-11-29T10:28:26.840Z,66.0714
2022-11-29T10:29:26.875Z,66.0714
2022-11-29T10:30:26.933Z,66.1429
2022-11-29T10:31:26.926Z,66.2857
2022-11-29T10:32:26.959Z,66
2022-11-29T10:33:26.993Z,66.0714
2022-11-29T10:34:27.030Z,66.1429
2022-11-29T10:35:27.066Z,66.0714
2022-11-29T10:36:27.092Z,66.0714
2022-11-29T10:37:27.128Z,66
2022-11-29T10:38:31.679Z,65.8571
2022-11-29T10:39:27.183Z,65.8571
2022-11-29T10:40:27.220Z,66
2022-11-29T10:41:27.251Z,66
2022-11-29T10:42:27.284Z,65.8571
2022-11-29T10:43:27.319Z,65.9286
2022-11-29T10:44:27.350Z,65.7857
2022-11-29T10:45:27.394Z,65.7143
2022-11-29T10:46:27.473Z,65.8571
2022-11-29T10:47:27.440Z,66.2143
2022-11-29T10:48:27.481Z,66.2857
2022-11-29T10:49:27.514Z,66.3571
2022-11-29T10:50:27.553Z,66.5714
2022-11-29T10:51:27.565Z,66.5714
2022-11-29T10:52:27.608Z,66.4286
2022-11-29T10:53:27.640Z,66.4286
2022-11-29T10:54:27.665Z,66.5714
2022-11-29T10:55:27.698Z,66.4286
2022-11-29T10:56:27.723Z,66.3571
2022-11-29T10:57:27.751Z,66.4286
2022-11-29T10:58:28.827Z,66.4286
2022-11-29T10:59:27.842Z,66.4286
2022-11-29T11:00:27.849Z,66.2143
2022-11-29T11:01:27.896Z,66.3571
2022-11-29T11:02:28.002Z,66.5714
2022-11-29T11:03:27.943Z,66.4286
2022-11-29T11:04:27.958Z,66.6429
2022-11-29T11:05:28.081Z,66.5
2022-11-29T11:06:28.040Z,66.4286
2022-11-29T11:07:28.190Z,66.3571
2022-11-29T11:08:28.092Z,66.2857
2022-11-29T11:09:28.107Z,66.2857
2022-11-29T11:10:28.167Z,66.2857
2022-11-29T11:11:28.198Z,66.1429
2022-11-29T11:11:42.360Z,66.1429
2022-11-29T11:12:42.395Z,66
2022-11-29T11:13:42.423Z,66.0714
2022-11-29T11:14:42.532Z,65.8571
2022-11-29T11:15:42.495Z,65.7857
2022-11-29T11:16:42.570Z,65.7857
2022-11-29T11:17:42.565Z,65.7857
2022-11-29T11:18:42.607Z,65.7857
2022-11-29T11:19:42.630Z,65.9286
2022-11-29T11:20:42.667Z,65.8571
2022-11-29T11:21:42.696Z,65.6429
2022-11-29T11:22:42.743Z,65.4286
2022-11-29T11:23:43.111Z,65.5
2022-11-29T11:24:43.032Z,65.5714
2022-11-29T11:25:42.841Z,65.5
2022-11-29T11:26:42.879Z,65.3571
2022-11-29T11:27:42.917Z,65.5
2022-11-29T11:28:42.962Z,65.5714
2022-11-29T11:29:43.002Z,65.6429
2022-11-29T11:30:43.091Z,65.5
2022-11-29T11:31:43.073Z,65.4286
2022-11-29T11:32:43.108Z,65.5
2022-11-29T11:33:43.139Z,65.5
2022-11-29T11:34:43.639Z,65.5
2022-11-29T11:35:43.213Z,65.5714
2022-11-29T11:36:43.485Z,65.6429
2022-11-29T11:37:43.278Z,65.5
2022-11-29T11:38:43.307Z,65.3571
2022-11-29T11:39:43.474Z,65.3571
2022-11-29T11:40:43.430Z,65.2857
2022-11-29T11:41:43.424Z,65.1429
2022-11-29T11:42:43.450Z,65.1429
2022-11-29T11:43:43.484Z,65.1429
2022-11-29T11:44:47.819Z,65
2022-11-29T11:45:43.554Z,65.0714
2022-11-29T11:46:43.633Z,65.1429
2022-11-29T11:47:43.622Z,65.1429
2022-11-29T11:48:43.655Z,65.1429
2022-11-29T11:49:43.689Z,65.0714
2022-11-29T11:50:43.721Z,65.1429
2022-11-29T11:51:43.742Z,65.0714
2022-11-29T11:52:49.907Z,65.0714
2022-11-29T11:53:43.409Z,65
2022-11-29T11:54:43.781Z,65
2022-11-29T11:55:43.473Z,65.2143
2022-11-29T11:56:43.495Z,65.1429
2022-11-29T11:57:43.511Z,65.1429
2022-11-29T11:58:43.544Z,65.1429
2022-11-29T11:59:43.577Z,65.2857
2022-11-29T12:00:05.030Z,65.2857
2022-11-29T12:01:04.287Z,65.2143
2022-11-29T12:01:18.956Z,65.2143
2022-11-29T12:02:04.580Z,65.3571
2022-11-29T12:02:54.774Z,65.4286
2022-11-29T12:03:54.725Z,65.4286
2022-11-29T12:04:54.768Z,65.4286
2022-11-29T12:05:01.980Z,65.5
2022-11-29T12:05:58.432Z,65.5
2022-11-29T12:06:58.477Z,65.4286
2022-11-29T12:08:08.102Z,65.5714
2022-11-29T12:08:58.559Z,65.5714
2022-11-29T12:09:58.582Z,65.7143
2022-11-29T12:11:02.687Z,65.7857
2022-11-29T12:11:58.643Z,65.6429
2022-11-29T12:12:58.687Z,65.4286
2022-11-29T12:13:20.466Z,65.4286
2022-11-29T12:14:20.494Z,65.5
2022-11-29T12:15:20.526Z,65.4286
2022-11-29T12:16:20.600Z,65.5